createdAt,value
2018-09-06T00:01:43.249Z,13.87
2018-09-06T00:14:05.734Z,17.07
2018-09-06T00:18:07.951Z,17.07
2018-09-06T00:22:11.121Z,15.67
2018-09-06T00:26:13.308Z,17.93
2018-09-06T00:30:15.535Z,16.77
2018-09-06T00:34:17.687Z,18.10
2018-09-06T00:38:19.916Z,17.50
2018-09-06T00:42:22.265Z,16.47
2018-09-06T00:46:24.489Z,18.77
2018-09-06T00:50:27.098Z,18.07
2018-09-06T00:54:29.280Z,16.93
2018-09-06T00:58:31.470Z,16.83
2018-09-06T01:02:33.650Z,17.47
2018-09-06T01:06:35.841Z,16.63
2018-09-06T01:10:37.989Z,18.60
2018-09-06T01:14:40.154Z,16.57
2018-09-06T01:18:42.368Z,16.00
2018-09-06T01:31:05.416Z,18.27
2018-09-06T01:35:07.576Z,18.77
2018-09-06T01:39:10.700Z,18.10
2018-09-06T01:43:12.881Z,18.00
2018-09-06T01:47:15.082Z,19.30
2018-09-06T01:51:17.247Z,19.27
2018-09-06T01:55:19.400Z,20.33
2018-09-06T01:59:21.590Z,20.33
2018-09-06T02:03:24.035Z,20.90
2018-09-06T02:07:26.240Z,17.23
2018-09-06T02:11:28.419Z,20.23
2018-09-06T02:15:30.707Z,20.40
2018-09-06T02:19:32.943Z,19.53
2018-09-06T02:23:35.086Z,18.07
2018-09-06T02:27:37.362Z,17.87
2018-09-06T02:31:39.506Z,18.87
2018-09-06T02:35:41.656Z,19.20
2018-09-06T02:39:43.848Z,20.03
2018-09-06T02:43:46.015Z,19.00
2018-09-06T02:47:53.078Z,19.27
2018-09-06T02:51:55.242Z,17.47
2018-09-06T02:55:57.423Z,17.70
2018-09-06T02:59:59.643Z,20.63
2018-09-06T03:04:02.155Z,18.97
2018-09-06T03:08:05.069Z,17.77
2018-09-06T03:12:08.423Z,18.07
2018-09-06T03:16:10.575Z,15.63
2018-09-06T03:20:12.830Z,17.50
2018-09-06T03:24:15.229Z,19.60
2018-09-06T03:28:17.410Z,17.97
2018-09-06T03:32:19.648Z,18.00
2018-09-06T03:36:21.834Z,20.20
2018-09-06T03:40:24.056Z,20.13
2018-09-06T03:44:26.247Z,19.67
2018-09-06T03:48:28.439Z,18.70
2018-09-06T03:52:30.627Z,19.63
2018-09-06T03:56:32.792Z,20.10
2018-09-06T04:00:35.048Z,17.70
2018-09-06T04:04:37.230Z,17.63
2018-09-06T04:08:39.485Z,17.23
2018-09-06T04:12:41.626Z,17.20
2018-09-06T04:16:44.386Z,16.60
2018-09-06T04:20:46.588Z,19.33
2018-09-06T04:24:48.754Z,17.93
2018-09-06T04:28:50.985Z,19.23
2018-09-06T04:32:53.284Z,19.87
2018-09-06T04:36:55.413Z,18.03
2018-09-06T04:40:57.609Z,16.73
2018-09-06T04:44:59.819Z,19.67
2018-09-06T04:49:03.369Z,22.00
2018-09-06T04:53:05.586Z,20.40
2018-09-06T04:57:08.462Z,19.97
2018-09-06T05:01:10.656Z,20.37
2018-09-06T05:05:13.311Z,21.33
2018-09-06T05:09:15.475Z,19.17
2018-09-06T05:13:17.622Z,19.90
2018-09-06T05:17:19.789Z,19.70
2018-09-06T05:21:22.006Z,17.53
2018-09-06T05:25:24.260Z,20.37
2018-09-06T05:29:26.464Z,18.67
2018-09-06T05:33:28.697Z,19.10
2018-09-06T05:37:30.936Z,18.77
2018-09-06T05:41:33.155Z,16.27
2018-09-06T05:45:35.356Z,18.40
2018-09-06T05:49:37.571Z,17.27
2018-09-06T05:53:39.744Z,16.83
2018-09-06T05:57:41.919Z,17.93
2018-09-06T06:01:44.064Z,19.00
2018-09-06T06:05:46.401Z,18.63
2018-09-06T06:09:48.567Z,19.73
2018-09-06T06:13:50.780Z,17.87
2018-09-06T06:17:52.963Z,18.37
2018-09-06T06:21:55.217Z,18.50
2018-09-06T06:25:57.540Z,17.63
2018-09-06T06:29:59.743Z,16.97
2018-09-06T06:34:02.043Z,19.60
2018-09-06T06:38:04.279Z,16.33
2018-09-06T06:42:06.521Z,18.50
2018-09-06T06:46:08.705Z,22.27
2018-09-06T06:50:10.888Z,22.73
2018-09-06T06:54:13.301Z,20.10
2018-09-06T06:58:15.616Z,17.37
2018-09-06T07:02:17.811Z,20.50
2018-09-06T07:06:22.329Z,18.40
2018-09-06T07:10:24.498Z,24.43
2018-09-06T07:14:26.794Z,17.30
2018-09-06T07:18:29.500Z,18.40
2018-09-06T07:22:31.591Z,18.00
2018-09-06T07:26:34.999Z,19.23
2018-09-06T07:30:37.452Z,17.40
2018-09-06T07:34:39.594Z,20.70
2018-09-06T07:38:41.997Z,19.00
2018-09-06T07:42:44.236Z,17.63
2018-09-06T07:46:46.516Z,17.17
2018-09-06T07:50:48.665Z,16.90
2018-09-06T07:54:50.869Z,17.43
2018-09-06T07:58:53.150Z,16.73
2018-09-06T08:02:55.373Z,16.70
2018-09-06T08:06:57.588Z,19.47
2018-09-06T08:10:59.775Z,18.70
2018-09-06T08:15:01.990Z,16.60
2018-09-06T08:19:04.344Z,15.60
2018-09-06T08:23:06.643Z,17.00
2018-09-06T08:27:08.856Z,15.20
2018-09-06T08:31:11.058Z,14.17
2018-09-06T08:35:13.199Z,15.97
2018-09-06T08:39:15.419Z,15.33
2018-09-06T08:43:17.652Z,14.60
2018-09-06T08:47:19.906Z,15.47
2018-09-06T08:51:22.188Z,14.67
2018-09-06T08:55:24.459Z,13.47
2018-09-06T08:59:26.787Z,15.70
2018-09-06T09:03:29.016Z,15.90
2018-09-06T09:07:31.257Z,15.43
2018-09-06T09:11:33.505Z,15.50
2018-09-06T09:15:35.782Z,15.73
2018-09-06T09:19:37.984Z,18.67
2018-09-06T09:23:40.197Z,19.10
2018-09-06T09:27:43.174Z,19.43
2018-09-06T09:31:45.504Z,23.00
2018-09-06T09:35:48.762Z,19.73
2018-09-06T09:39:51.952Z,16.23
2018-09-06T09:43:54.159Z,17.57
2018-09-06T09:47:56.381Z,16.03
2018-09-06T09:51:58.560Z,16.20
2018-09-06T09:56:00.754Z,17.47
2018-09-06T10:00:03.007Z,17.17
2018-09-06T10:04:10.828Z,21.37
2018-09-06T10:08:18.615Z,15.70
2018-09-06T10:12:20.904Z,16.07
2018-09-06T10:16:23.208Z,16.30
2018-09-06T10:20:25.403Z,15.83
2018-09-06T10:24:27.647Z,15.63
2018-09-06T10:28:30.700Z,17.00
2018-09-06T10:32:32.994Z,15.43
2018-09-06T10:36:35.278Z,16.10
2018-09-06T10:40:37.591Z,14.73
2018-09-06T10:44:39.755Z,13.63
2018-09-06T10:48:42.327Z,15.33
2018-09-06T10:52:44.524Z,15.50
2018-09-06T10:56:47.169Z,18.20
2018-09-06T11:00:52.061Z,16.53
2018-09-06T11:04:54.312Z,18.90
2018-09-06T11:08:56.527Z,19.13
2018-09-06T11:12:58.713Z,22.07
2018-09-06T11:17:00.904Z,20.23
2018-09-06T11:21:03.478Z,21.13
2018-09-06T11:25:05.820Z,23.37
2018-09-06T11:29:08.020Z,25.53
2018-09-06T11:33:10.296Z,27.70
2018-09-06T11:37:12.515Z,30.57
2018-09-06T11:41:14.697Z,28.30
2018-09-06T11:45:16.979Z,31.60
2018-09-06T11:49:19.184Z,30.07
2018-09-06T11:53:21.415Z,25.27
2018-09-06T11:57:23.697Z,22.90
2018-09-06T12:01:26.124Z,21.83
2018-09-06T12:05:28.298Z,24.50
2018-09-06T12:09:30.518Z,27.37
2018-09-06T12:13:32.778Z,22.97
2018-09-06T12:17:35.035Z,25.63
2018-09-06T12:21:37.290Z,21.10
2018-09-06T12:25:39.542Z,21.13
2018-09-06T12:29:41.766Z,22.40
2018-09-06T12:33:44.196Z,21.13
2018-09-06T12:37:46.987Z,21.97
2018-09-06T12:41:49.350Z,20.67
2018-09-06T12:45:52.090Z,21.83
2018-09-06T12:49:54.448Z,20.77
2018-09-06T12:53:57.060Z,23.07
2018-09-06T12:57:59.259Z,21.43
2018-09-06T13:02:01.558Z,22.03
2018-09-06T13:06:05.386Z,17.97
2018-09-06T13:10:08.031Z,23.27
2018-09-06T13:14:10.203Z,25.27
2018-09-06T13:18:12.646Z,22.73
2018-09-06T13:22:15.016Z,21.77
2018-09-06T13:26:17.602Z,21.23
2018-09-06T13:30:20.039Z,21.47
2018-09-06T13:34:22.761Z,22.30
2018-09-06T13:38:25.000Z,20.57
2018-09-06T13:42:27.258Z,22.67
2018-09-06T13:46:29.508Z,24.07
2018-09-06T13:50:31.721Z,21.07
2018-09-06T13:54:33.979Z,20.37
2018-09-06T13:58:36.871Z,21.00
2018-09-06T14:02:39.016Z,21.17
2018-09-06T14:06:41.212Z,18.73
2018-09-06T14:10:43.379Z,20.50
2018-09-06T14:14:46.039Z,18.80
2018-09-06T14:18:48.289Z,19.40
2018-09-06T14:22:50.570Z,17.93
2018-09-06T14:26:52.753Z,18.10
2018-09-06T14:30:54.983Z,17.40
2018-09-06T14:34:57.183Z,16.33
2018-09-06T14:38:59.817Z,16.67
2018-09-06T14:43:02.124Z,17.20
2018-09-06T14:47:04.929Z,16.13
2018-09-06T14:51:07.126Z,16.03
2018-09-06T14:55:09.460Z,15.37
2018-09-06T14:59:11.683Z,15.97
2018-09-06T15:03:14.038Z,16.07
2018-09-06T15:07:16.317Z,15.43
2018-09-06T15:11:18.536Z,17.07
2018-09-06T15:15:20.830Z,16.40
2018-09-06T15:19:23.655Z,16.87
2018-09-06T15:23:27.532Z,17.53
2018-09-06T15:27:29.850Z,18.03
2018-09-06T15:31:32.023Z,19.27
2018-09-06T15:35:34.588Z,17.83
2018-09-06T15:39:37.431Z,17.43
2018-09-06T15:43:39.644Z,18.03
2018-09-06T15:47:41.846Z,18.30
2018-09-06T15:51:44.107Z,16.83
2018-09-06T15:55:56.061Z,16.33
2018-09-06T16:00:02.087Z,17.90
2018-09-06T16:04:09.905Z,15.87
2018-09-06T16:08:14.969Z,16.20
2018-09-06T16:12:17.211Z,16.03
2018-09-06T16:16:19.431Z,17.83
2018-09-06T16:20:21.681Z,17.67
2018-09-06T16:24:24.232Z,19.17
2018-09-06T16:28:26.555Z,18.60
2018-09-06T16:32:28.747Z,19.83
2018-09-06T16:36:30.965Z,19.93
2018-09-06T16:40:33.339Z,17.77
2018-09-06T16:44:36.072Z,18.87
2018-09-06T16:48:38.391Z,19.77
2018-09-06T16:52:42.692Z,19.40
2018-09-06T16:56:46.241Z,17.40
2018-09-06T17:00:50.494Z,17.33
2018-09-06T17:04:53.993Z,18.40
2018-09-06T17:08:56.178Z,15.87
2018-09-06T17:13:00.447Z,16.70
2018-09-06T17:17:03.288Z,15.47
2018-09-06T17:21:05.479Z,14.37
2018-09-06T17:25:07.725Z,14.30
2018-09-06T17:29:09.972Z,16.50
2018-09-06T17:33:12.232Z,18.23
2018-09-06T17:37:21.059Z,17.97
2018-09-06T17:41:23.495Z,19.27
2018-09-06T17:45:25.732Z,17.47
2018-09-06T17:49:27.914Z,18.67
2018-09-06T17:53:30.167Z,20.40
2018-09-06T17:57:32.376Z,19.67
2018-09-06T18:01:40.154Z,20.05
2018-09-06T18:05:42.345Z,18.63
2018-09-06T18:09:44.580Z,19.97
2018-09-06T18:13:46.807Z,21.07
2018-09-06T18:17:49.123Z,20.27
2018-09-06T18:21:51.287Z,20.73
2018-09-06T18:25:53.508Z,20.67
2018-09-06T18:29:55.833Z,24.60
2018-09-06T18:33:58.123Z,24.47
2018-09-06T18:38:00.351Z,23.53
2018-09-06T18:42:02.571Z,23.77
2018-09-06T18:46:04.856Z,28.10
2018-09-06T18:50:07.128Z,27.67
2018-09-06T18:54:09.810Z,25.97
2018-09-06T18:58:12.441Z,27.97
2018-09-06T19:02:15.316Z,27.37
2018-09-06T19:06:17.595Z,28.73
2018-09-06T19:10:19.855Z,28.50
2018-09-06T19:14:22.047Z,30.30
2018-09-06T19:18:24.304Z,31.33
2018-09-06T19:22:26.512Z,29.77
2018-09-06T19:26:28.945Z,28.70
2018-09-06T19:30:31.731Z,30.03
2018-09-06T19:34:34.040Z,33.40
2018-09-06T19:38:36.716Z,36.37
2018-09-06T19:42:38.894Z,39.30
2018-09-06T19:46:41.101Z,38.60
2018-09-06T19:50:44.162Z,41.20
2018-09-06T19:54:46.387Z,43.13
2018-09-06T19:58:48.572Z,44.53
2018-09-06T20:02:50.818Z,47.07
2018-09-06T20:06:53.085Z,46.17
2018-09-06T20:10:55.879Z,47.07
2018-09-06T20:14:58.088Z,49.73
2018-09-06T20:19:00.694Z,52.77
2018-09-06T20:23:02.921Z,47.10
2018-09-06T20:27:05.300Z,49.17
2018-09-06T20:31:07.448Z,53.37
2018-09-06T20:35:09.767Z,52.43
2018-09-06T20:39:11.970Z,48.03
2018-09-06T20:43:14.292Z,47.57
2018-09-06T20:47:16.472Z,49.23
2018-09-06T20:51:18.670Z,46.80
2018-09-06T20:55:20.855Z,44.17
2018-09-06T20:59:23.185Z,44.60
2018-09-06T21:03:25.288Z,51.13
2018-09-06T21:07:27.538Z,52.47
2018-09-06T21:11:29.756Z,57.27
2018-09-06T21:15:31.979Z,53.13
2018-09-06T21:19:34.134Z,55.57
2018-09-06T21:23:36.347Z,64.20
2018-09-06T21:27:38.483Z,62.50
2018-09-06T21:31:40.704Z,63.23
2018-09-06T21:35:42.887Z,62.93
2018-09-06T21:39:45.108Z,66.10
2018-09-06T21:43:47.288Z,61.43
2018-09-06T21:47:49.454Z,66.53
2018-09-06T21:51:51.654Z,65.67
2018-09-06T21:55:53.811Z,74.93
2018-09-06T21:59:55.966Z,73.10
2018-09-06T22:04:08.184Z,76.30
2018-09-06T22:08:10.335Z,90.40
2018-09-06T22:12:17.223Z,77.47
2018-09-06T22:16:19.589Z,85.93
2018-09-06T22:20:21.757Z,83.57
2018-09-06T22:24:23.894Z,87.43
2018-09-06T22:28:26.096Z,86.67
2018-09-06T22:32:28.275Z,89.40
2018-09-06T22:36:30.436Z,83.60
2018-09-06T22:40:32.587Z,87.67
2018-09-06T22:44:34.759Z,95.20
2018-09-06T22:48:36.931Z,82.10
2018-09-06T22:52:39.071Z,81.33
2018-09-06T22:56:41.288Z,88.37
2018-09-06T23:00:43.522Z,90.40
2018-09-06T23:04:45.730Z,82.27
2018-09-06T23:08:47.879Z,86.80
2018-09-06T23:12:50.003Z,88.53
2018-09-06T23:16:52.142Z,89.20
2018-09-06T23:20:54.320Z,76.60
2018-09-06T23:24:56.498Z,80.77
2018-09-06T23:28:58.643Z,83.93
2018-09-06T23:33:00.791Z,80.40
2018-09-06T23:37:03.608Z,76.70
2018-09-06T23:41:05.856Z,68.37
2018-09-06T23:45:08.082Z,67.57
2018-09-06T23:49:10.211Z,64.70
2018-09-06T23:53:12.375Z,68.20
2018-09-06T23:57:15.007Z,67.00
